Time;durP1;ratioP1;P1;durP2;ratioP2;P2;SDS_P1;SDS_P2;PMS_P1;PMS_P2;Temp;Humidity;BMP_temperature;BMP_pressure;BME280_temperature;BME280_humidity;BME280_pressure;Samples;Min_cycle;Max_cycle;Signal;HPM_P1;HPM_P2
2021/09/13 00:01:19;;;;;;;15.45;6.28;;;12.60;99.90;;;;;;5006939;28;20030;-56
2021/09/13 00:03:44;;;;;;;11.27;6.88;;;12.60;99.90;;;;;;5010299;28;20038;-56
2021/09/13 00:06:10;;;;;;;9.82;6.15;;;12.50;99.90;;;;;;5010148;28;20045;-54
2021/09/13 00:08:35;;;;;;;14.73;6.53;;;12.50;99.90;;;;;;5005678;28;20041;-57
2021/09/13 00:11:01;;;;;;;12.90;7.20;;;12.50;99.90;;;;;;5005322;28;20544;-57
2021/09/13 00:13:26;;;;;;;12.10;7.28;;;12.50;99.90;;;;;;5010058;28;20141;-57
2021/09/13 00:15:52;;;;;;;10.10;6.40;;;12.50;99.90;;;;;;5009660;28;20029;-56
2021/09/13 00:18:18;;;;;;;12.80;7.68;;;12.50;99.90;;;;;;5009413;28;20707;-55
2021/09/13 00:20:44;;;;;;;13.13;7.50;;;12.50;99.90;;;;;;5023618;28;20026;-54
2021/09/13 00:23:09;;;;;;;14.02;8.27;;;12.40;99.90;;;;;;5008542;28;20121;-55
2021/09/13 00:25:35;;;;;;;10.77;9.10;;;12.50;99.90;;;;;;5010165;28;20765;-55
2021/09/13 00:28:01;;;;;;;11.45;8.90;;;12.40;99.90;;;;;;5008619;28;20040;-54
2021/09/13 00:30:26;;;;;;;17.80;10.30;;;12.40;99.90;;;;;;5001009;28;20555;-54
2021/09/13 00:32:52;;;;;;;15.88;7.95;;;12.40;99.90;;;;;;5003897;28;20567;-55
2021/09/13 00:35:17;;;;;;;16.85;8.90;;;12.30;99.90;;;;;;5009572;28;20669;-56
2021/09/13 00:37:43;;;;;;;17.75;10.60;;;12.30;99.90;;;;;;5007612;28;20036;-57
2021/09/13 00:40:09;;;;;;;14.13;8.98;;;12.30;99.90;;;;;;5006930;28;20085;-56
2021/09/13 00:42:35;;;;;;;12.13;9.30;;;12.30;99.90;;;;;;5006542;28;20030;-57
2021/09/13 00:45:01;;;;;;;15.85;10.63;;;12.30;99.90;;;;;;5010006;28;20026;-56
2021/09/13 00:47:27;;;;;;;14.50;10.55;;;12.20;99.90;;;;;;5008193;28;20025;-56
2021/09/13 00:49:54;;;;;;;17.17;10.57;;;12.30;99.90;;;;;;5007619;28;20110;-55
2021/09/13 00:52:19;;;;;;;16.50;10.25;;;12.30;99.90;;;;;;5005680;28;20080;-53
2021/09/13 00:54:46;;;;;;;11.77;8.75;;;12.30;99.90;;;;;;5009374;28;20041;-57
2021/09/13 00:57:16;;;;;;;12.73;9.43;;;12.30;99.90;;;;;;5008769;28;20030;-57
2021/09/13 00:59:41;;;;;;;15.70;9.32;;;12.30;99.90;;;;;;5008247;28;20030;-57
2021/09/13 01:02:07;;;;;;;19.38;9.38;;;12.30;99.90;;;;;;5006540;28;20079;-55
2021/09/13 01:04:33;;;;;;;14.23;9.82;;;12.30;99.90;;;;;;5009637;28;20113;-56
2021/09/13 01:06:58;;;;;;;11.93;8.65;;;12.20;99.90;;;;;;5009078;28;20049;-54
2021/09/13 01:09:24;;;;;;;13.73;9.90;;;12.20;99.90;;;;;;5009083;28;20030;-54
2021/09/13 01:11:50;;;;;;;20.30;10.98;;;12.20;99.90;;;;;;5008929;28;20038;-56
2021/09/13 01:14:16;;;;;;;19.92;9.80;;;12.20;99.90;;;;;;5007455;28;20034;-55
2021/09/13 01:16:42;;;;;;;13.68;10.38;;;12.10;99.90;;;;;;5007842;28;20022;-55
2021/09/13 01:19:07;;;;;;;15.23;9.90;;;12.10;99.90;;;;;;5008850;28;20507;-55
2021/09/13 01:21:35;;;;;;;13.32;11.07;;;12.20;99.90;;;;;;5010823;28;20037;-57
2021/09/13 01:24:01;;;;;;;16.48;10.02;;;12.10;99.90;;;;;;5010490;28;20026;-54
2021/09/13 01:26:26;;;;;;;14.75;10.15;;;12.10;99.90;;;;;;5007427;28;20532;-56
2021/09/13 01:28:52;;;;;;;15.45;10.68;;;12.10;99.90;;;;;;5006588;28;20584;-56
2021/09/13 01:31:18;;;;;;;14.98;10.82;;;12.20;99.90;;;;;;5003287;28;20040;-55
2021/09/13 01:33:43;;;;;;;16.13;10.88;;;12.10;99.90;;;;;;5011016;28;20034;-53
2021/09/13 01:36:09;;;;;;;17.67;11.02;;;12.10;99.90;;;;;;5012359;28;20119;-57
2021/09/13 01:38:35;;;;;;;16.73;11.05;;;12.10;99.90;;;;;;5011827;28;20026;-56
2021/09/13 01:41:00;;;;;;;20.67;10.95;;;12.10;99.90;;;;;;5005895;28;20018;-57
2021/09/13 01:43:26;;;;;;;17.92;11.63;;;12.10;99.90;;;;;;5008813;28;20390;-56
2021/09/13 01:45:51;;;;;;;21.83;11.45;;;12.00;99.90;;;;;;5010405;28;20026;-57
2021/09/13 01:48:17;;;;;;;18.50;11.55;;;12.00;99.90;;;;;;5011645;28;20525;-55
2021/09/13 01:50:43;;;;;;;19.05;13.52;;;12.00;99.90;;;;;;5011876;28;20053;-58
2021/09/13 01:53:08;;;;;;;19.23;12.10;;;12.00;99.90;;;;;;5011450;28;20046;-56
2021/09/13 01:55:34;;;;;;;15.82;11.48;;;11.90;99.90;;;;;;5012901;28;20026;-57
2021/09/13 01:58:00;;;;;;;17.33;11.85;;;11.90;99.90;;;;;;5011988;28;20385;-54
2021/09/13 02:00:25;;;;;;;17.63;11.88;;;11.80;99.90;;;;;;5008628;28;20480;-54
2021/09/13 02:02:51;;;;;;;15.48;10.32;;;11.80;99.90;;;;;;5010436;28;20756;-58
2021/09/13 02:05:16;;;;;;;18.40;10.48;;;11.80;99.90;;;;;;5010727;28;20032;-57
2021/09/13 02:07:42;;;;;;;13.48;9.82;;;11.80;99.90;;;;;;5009646;28;20069;-57
2021/09/13 02:10:08;;;;;;;14.10;9.77;;;11.80;99.90;;;;;;5012317;28;20021;-55
2021/09/13 02:12:34;;;;;;;12.45;10.63;;;11.80;99.90;;;;;;5012276;28;20113;-56
2021/09/13 02:14:59;;;;;;;11.32;9.63;;;11.70;99.90;;;;;;5009482;28;20850;-57
2021/09/13 02:17:25;;;;;;;12.07;9.90;;;11.60;99.90;;;;;;5026679;28;20545;-58
2021/09/13 02:19:50;;;;;;;14.65;10.27;;;11.60;99.90;;;;;;5011521;28;20088;-57
2021/09/13 02:22:16;;;;;;;17.40;12.27;;;11.50;99.90;;;;;;5012111;28;20053;-57
2021/09/13 02:24:42;;;;;;;18.38;12.73;;;11.50;99.90;;;;;;4993896;28;20037;-56
2021/09/13 02:27:08;;;;;;;19.13;13.88;;;11.50;99.90;;;;;;5011639;28;20137;-57
2021/09/13 02:29:34;;;;;;;18.83;13.60;;;11.50;99.90;;;;;;5011200;28;20413;-58
2021/09/13 02:32:00;;;;;;;20.73;14.20;;;11.50;99.90;;;;;;5010654;28;20087;-56
2021/09/13 02:34:26;;;;;;;19.80;11.95;;;11.50;99.90;;;;;;5011392;28;20025;-55
2021/09/13 02:36:52;;;;;;;16.73;12.23;;;11.50;99.90;;;;;;5011527;28;20030;-57
2021/09/13 02:39:17;;;;;;;19.95;12.63;;;11.50;99.90;;;;;;5011835;28;20540;-56
2021/09/13 02:41:43;;;;;;;19.58;13.50;;;11.50;99.90;;;;;;5010772;28;20041;-54
2021/09/13 02:44:08;;;;;;;18.95;13.02;;;11.40;99.90;;;;;;5006142;28;20108;-57
2021/09/13 02:46:34;;;;;;;21.50;13.85;;;11.40;99.90;;;;;;5011256;28;20033;-57
2021/09/13 02:48:59;;;;;;;17.95;13.57;;;11.50;99.90;;;;;;5011071;28;20037;-56
2021/09/13 02:51:25;;;;;;;22.48;14.75;;;11.50;99.90;;;;;;5011572;28;20034;-55
2021/09/13 02:53:51;;;;;;;18.73;13.95;;;11.50;99.90;;;;;;5008282;28;20029;-56
2021/09/13 02:56:17;;;;;;;17.55;11.60;;;11.50;99.90;;;;;;5011795;28;20097;-57
2021/09/13 02:58:42;;;;;;;19.58;13.77;;;11.50;99.90;;;;;;5007857;28;20109;-57
2021/09/13 03:01:08;;;;;;;19.35;12.93;;;11.40;99.90;;;;;;5006866;28;20112;-57
2021/09/13 03:03:34;;;;;;;28.40;13.35;;;11.40;99.90;;;;;;5009844;28;20054;-58
2021/09/13 03:05:59;;;;;;;18.15;12.75;;;11.40;99.90;;;;;;5011180;28;20044;-58
2021/09/13 03:08:25;;;;;;;22.88;13.23;;;11.30;99.90;;;;;;5010944;28;20442;-57
2021/09/13 03:10:51;;;;;;;19.13;13.70;;;11.30;99.90;;;;;;5010916;28;20036;-56
2021/09/13 03:13:17;;;;;;;22.55;12.15;;;11.30;99.90;;;;;;5010732;28;20122;-57
2021/09/13 03:15:43;;;;;;;19.52;14.52;;;11.30;99.90;;;;;;5010786;28;20109;-56
2021/09/13 03:18:09;;;;;;;21.70;14.02;;;11.20;99.90;;;;;;5005773;28;20293;-56
2021/09/13 03:20:34;;;;;;;20.40;13.75;;;11.20;99.90;;;;;;5010614;28;20101;-54
2021/09/13 03:23:00;;;;;;;24.17;14.23;;;11.20;99.90;;;;;;5007699;28;20022;-58
2021/09/13 03:25:26;;;;;;;19.63;13.38;;;11.20;99.90;;;;;;5007487;28;20025;-58
2021/09/13 03:27:52;;;;;;;21.38;13.82;;;11.20;99.90;;;;;;5009578;28;20429;-57
2021/09/13 03:30:18;;;;;;;19.85;12.98;;;11.20;99.90;;;;;;5010397;28;20641;-55
2021/09/13 03:32:44;;;;;;;21.27;13.32;;;11.20;99.90;;;;;;5010124;28;20100;-56
2021/09/13 03:35:09;;;;;;;20.65;13.93;;;11.10;99.90;;;;;;5010485;28;20400;-56
2021/09/13 03:37:35;;;;;;;21.52;15.02;;;11.20;99.90;;;;;;5010327;28;20370;-58
2021/09/13 03:40:01;;;;;;;22.17;15.57;;;11.20;99.90;;;;;;5009312;28;20029;-58
2021/09/13 03:42:26;;;;;;;20.13;14.90;;;11.20;99.90;;;;;;5006537;28;20034;-57
2021/09/13 03:44:52;;;;;;;21.52;14.50;;;11.10;99.90;;;;;;5005838;28;20076;-56
2021/09/13 03:47:17;;;;;;;20.73;13.68;;;11.10;99.90;;;;;;5009854;28;20045;-57
2021/09/13 03:49:43;;;;;;;26.52;14.82;;;11.10;99.90;;;;;;5010207;28;20072;-58
2021/09/13 03:52:09;;;;;;;20.00;12.77;;;11.10;99.90;;;;;;5008394;28;20018;-55
2021/09/13 03:54:38;;;;;;;20.15;13.70;;;11.00;99.90;;;;;;5010028;28;20030;-57
2021/09/13 03:57:04;;;;;;;21.60;13.27;;;11.00;99.90;;;;;;5009091;28;20037;-58
2021/09/13 03:59:31;;;;;;;19.85;13.52;;;11.00;99.90;;;;;;5008630;28;20065;-57
2021/09/13 04:01:58;;;;;;;20.55;12.68;;;11.00;99.90;;;;;;5009780;28;20543;-54
2021/09/13 04:04:26;;;;;;;15.10;11.68;;;11.00;99.90;;;;;;5010197;28;20033;-56
2021/09/13 04:07:00;;;;;;;21.02;14.63;;;10.90;99.90;;;;;;5008014;28;20034;-58
2021/09/13 04:11:58;;;;;;;20.95;14.55;;;10.90;99.90;;;;;;5008752;28;20034;-55
2021/09/13 04:14:26;;;;;;;18.92;14.80;;;10.90;99.90;;;;;;5010060;28;20404;-55
2021/09/13 04:16:53;;;;;;;25.20;14.93;;;10.90;99.90;;;;;;5009156;28;20378;-56
2021/09/13 04:19:19;;;;;;;24.73;15.77;;;10.80;99.90;;;;;;5009156;28;20072;-57
2021/09/13 04:21:45;;;;;;;23.75;15.38;;;10.90;99.90;;;;;;5008176;28;20026;-57
2021/09/13 04:24:11;;;;;;;20.38;14.82;;;10.90;99.90;;;;;;5008854;28;20040;-58
2021/09/13 04:26:37;;;;;;;21.73;14.55;;;10.90;99.90;;;;;;5009557;28;20061;-57
2021/09/13 04:29:03;;;;;;;26.33;15.35;;;10.90;99.90;;;;;;5022196;28;20112;-57
2021/09/13 04:31:29;;;;;;;21.38;15.35;;;10.90;99.90;;;;;;5006500;28;20026;-58
2021/09/13 04:33:55;;;;;;;19.73;15.23;;;10.90;99.90;;;;;;5006265;28;20452;-56
2021/09/13 04:36:20;;;;;;;20.38;14.20;;;10.90;99.90;;;;;;5007899;28;20037;-57
2021/09/13 04:38:46;;;;;;;22.15;14.98;;;10.90;99.90;;;;;;5009063;28;20041;-56
2021/09/13 04:41:13;;;;;;;28.92;16.90;;;10.90;99.90;;;;;;5009311;28;20515;-57
2021/09/13 04:43:39;;;;;;;26.80;15.38;;;10.90;99.90;;;;;;5006220;28;20427;-57
2021/09/13 04:46:05;;;;;;;25.92;14.73;;;10.90;99.90;;;;;;5009686;28;20026;-57
2021/09/13 04:48:30;;;;;;;19.45;14.98;;;10.90;99.90;;;;;;5002599;28;20026;-54
2021/09/13 04:50:56;;;;;;;22.88;15.98;;;10.90;99.90;;;;;;5009811;28;20153;-56
2021/09/13 04:53:21;;;;;;;21.08;14.45;;;10.90;99.90;;;;;;5006604;28;20823;-58
2021/09/13 04:55:48;;;;;;;21.75;14.25;;;10.80;99.90;;;;;;5007994;28;20433;-58
2021/09/13 04:58:13;;;;;;;18.10;14.13;;;10.80;99.90;;;;;;5010703;28;20552;-56
2021/09/13 05:00:39;;;;;;;23.98;15.38;;;10.80;99.90;;;;;;4994006;28;20034;-58
2021/09/13 05:03:05;;;;;;;20.35;15.07;;;10.90;99.90;;;;;;5004780;28;20501;-57
2021/09/13 05:05:31;;;;;;;16.90;13.90;;;10.80;99.90;;;;;;5012189;28;20057;-56
2021/09/13 05:07:56;;;;;;;17.52;13.18;;;10.90;99.90;;;;;;5011114;28;20493;-56
2021/09/13 05:10:22;;;;;;;19.75;13.75;;;10.90;99.90;;;;;;5005045;28;20100;-56
2021/09/13 05:12:48;;;;;;;17.92;12.55;;;10.90;99.90;;;;;;5007795;28;20040;-57
2021/09/13 05:15:13;;;;;;;18.50;14.05;;;10.90;99.90;;;;;;5002408;28;20022;-57
2021/09/13 05:17:39;;;;;;;19.65;14.70;;;10.90;99.90;;;;;;5012704;28;20030;-58
2021/09/13 05:20:05;;;;;;;23.23;16.20;;;10.90;99.90;;;;;;5012938;28;20034;-59
2021/09/13 05:22:31;;;;;;;19.50;13.93;;;11.00;99.90;;;;;;5011462;28;20501;-58
2021/09/13 05:24:57;;;;;;;22.95;11.75;;;11.00;99.90;;;;;;5013023;28;20041;-56
2021/09/13 05:27:22;;;;;;;16.85;10.95;;;11.10;99.90;;;;;;5012772;28;20105;-57
2021/09/13 05:29:48;;;;;;;23.35;11.55;;;11.10;99.90;;;;;;5012713;28;20037;-57
2021/09/13 05:32:14;;;;;;;16.05;10.80;;;11.00;99.90;;;;;;5009571;28;20370;-56
2021/09/13 05:34:39;;;;;;;24.15;9.82;;;11.00;99.90;;;;;;5012886;28;20021;-63
2021/09/13 05:37:05;;;;;;;11.73;8.95;;;11.10;99.90;;;;;;4977424;28;20050;-57
2021/09/13 05:39:31;;;;;;;14.55;9.07;;;11.10;99.90;;;;;;5011608;28;20033;-57
2021/09/13 05:41:57;;;;;;;13.75;9.52;;;11.10;99.90;;;;;;5011150;28;20037;-57
2021/09/13 05:44:22;;;;;;;14.55;8.68;;;11.20;99.90;;;;;;5009778;28;20037;-58
2021/09/13 05:46:48;;;;;;;12.48;9.65;;;11.20;99.90;;;;;;5012008;28;20025;-59
2021/09/13 05:49:14;;;;;;;15.45;8.82;;;11.30;99.90;;;;;;5012035;28;20028;-58
2021/09/13 05:51:45;;;;;;;16.10;8.98;;;11.40;99.90;;;;;;5011881;28;20061;-57
2021/09/13 05:54:11;;;;;;;11.63;9.18;;;11.50;99.90;;;;;;5013906;28;20048;-64
2021/09/13 05:56:37;;;;;;;10.45;8.07;;;11.70;99.90;;;;;;5012360;28;20388;-59
2021/09/13 05:59:03;;;;;;;17.05;9.13;;;11.80;99.90;;;;;;5010154;28;20029;-58
2021/09/13 06:01:29;;;;;;;15.85;9.52;;;12.00;99.90;;;;;;5012166;28;20104;-58
2021/09/13 06:03:54;;;;;;;17.83;10.00;;;12.20;99.90;;;;;;5009133;28;20053;-58
2021/09/13 06:06:20;;;;;;;12.65;8.98;;;12.40;99.90;;;;;;5006981;28;20026;-57
2021/09/13 06:08:45;;;;;;;18.17;10.23;;;12.70;99.90;;;;;;5008472;28;20030;-58
2021/09/13 06:11:11;;;;;;;14.30;9.45;;;12.90;99.90;;;;;;5009964;28;20033;-59
2021/09/13 06:13:36;;;;;;;14.60;9.73;;;13.10;99.90;;;;;;5009703;28;20053;-59
2021/09/13 06:16:02;;;;;;;14.52;8.82;;;13.30;99.90;;;;;;5012089;28;20392;-59
2021/09/13 06:18:28;;;;;;;15.68;9.15;;;13.50;99.90;;;;;;5010758;28;20366;-58
2021/09/13 06:20:53;;;;;;;10.50;8.48;;;13.80;99.90;;;;;;5010862;28;20037;-58
2021/09/13 06:23:19;;;;;;;14.85;8.38;;;13.90;99.90;;;;;;5011101;28;20040;-59
2021/09/13 06:25:45;;;;;;;12.40;8.55;;;14.00;99.90;;;;;;5010855;28;20022;-58
2021/09/13 06:28:10;;;;;;;21.05;8.40;;;14.10;99.90;;;;;;5011128;28;20109;-57
2021/09/13 06:30:36;;;;;;;11.50;7.70;;;14.10;99.90;;;;;;5010479;28;20133;-55
2021/09/13 06:33:01;;;;;;;12.30;7.38;;;14.20;99.90;;;;;;5011390;28;20030;-58
2021/09/13 06:35:27;;;;;;;12.13;6.45;;;14.20;99.90;;;;;;5010688;28;20040;-55
2021/09/13 06:37:52;;;;;;;10.10;7.05;;;14.30;99.90;;;;;;4973508;28;20095;-58
2021/09/13 06:40:18;;;;;;;10.65;5.97;;;14.40;99.90;;;;;;4985719;28;20030;-55
2021/09/13 06:42:44;;;;;;;10.55;6.15;;;14.40;99.90;;;;;;4972967;28;20035;-59
2021/09/13 06:45:19;;;;;;;8.80;6.85;;;14.40;99.90;;;;;;4990314;28;20037;-59
2021/09/13 06:47:45;;;;;;;8.10;6.47;;;14.30;99.90;;;;;;4987545;28;20030;-57
2021/09/13 06:50:23;;;;;;;9.02;6.35;;;14.50;99.90;;;;;;4988600;28;20049;-57
2021/09/13 06:52:51;;;;;;;8.07;6.70;;;14.80;99.90;;;;;;4984941;28;20058;-57
2021/09/13 06:55:17;;;;;;;12.35;6.35;;;15.00;99.90;;;;;;4991052;28;20034;-57
2021/09/13 06:57:42;;;;;;;13.38;6.72;;;15.40;99.90;;;;;;4998866;28;20065;-56
2021/09/13 07:00:14;;;;;;;12.10;8.27;;;15.50;99.90;;;;;;4986501;28;20413;-59
2021/09/13 07:02:41;;;;;;;11.52;6.40;;;16.00;99.90;;;;;;4990365;28;20130;-56
2021/09/13 07:05:08;;;;;;;10.82;6.50;;;16.40;99.90;;;;;;4989898;28;20074;-57
2021/09/13 07:07:34;;;;;;;13.35;5.95;;;16.60;99.90;;;;;;4990228;28;20026;-58
2021/09/13 07:10:00;;;;;;;10.52;5.53;;;17.10;99.90;;;;;;4989967;28;20023;-57
2021/09/13 07:12:26;;;;;;;9.23;5.93;;;17.20;99.90;;;;;;4989080;28;20084;-58
2021/09/13 07:14:51;;;;;;;12.00;6.20;;;17.30;99.90;;;;;;4986217;28;20053;-57
2021/09/13 07:17:17;;;;;;;11.30;6.60;;;17.30;99.90;;;;;;4988563;28;20174;-59
2021/09/13 07:19:45;;;;;;;8.93;6.68;;;16.90;99.90;;;;;;4989239;28;20093;-56
2021/09/13 07:22:10;;;;;;;7.35;5.85;;;17.10;99.90;;;;;;4990086;28;20035;-57
2021/09/13 07:24:36;;;;;;;11.93;6.60;;;17.00;99.90;;;;;;4989529;28;20054;-57
2021/09/13 07:27:02;;;;;;;13.13;7.25;;;17.20;99.90;;;;;;4989440;28;20030;-58
2021/09/13 07:29:27;;;;;;;15.57;7.28;;;17.10;99.90;;;;;;4984979;28;20034;-59
2021/09/13 07:31:53;;;;;;;15.57;6.80;;;17.30;99.90;;;;;;4981461;28;20798;-58
2021/09/13 07:34:18;;;;;;;22.05;6.60;;;17.70;99.90;;;;;;4983808;28;20030;-53
2021/09/13 07:36:44;;;;;;;16.33;7.97;;;18.40;99.90;;;;;;4975713;28;20142;-59
2021/09/13 07:39:09;;;;;;;13.55;7.43;;;19.20;99.90;;;;;;4989090;28;20037;-58
2021/09/13 07:41:35;;;;;;;13.48;6.28;;;19.50;99.90;;;;;;4988008;28;20034;-58
2021/09/13 07:44:00;;;;;;;14.23;6.38;;;20.30;99.90;;;;;;4981452;28;20062;-58
2021/09/13 07:46:26;;;;;;;8.32;5.90;;;20.20;99.90;;;;;;4990386;28;20029;-58
2021/09/13 07:48:52;;;;;;;8.77;5.95;;;20.90;99.80;;;;;;4988961;28;20030;-58
2021/09/13 07:51:17;;;;;;;10.20;6.38;;;21.10;99.40;;;;;;4989210;28;20026;-60
2021/09/13 07:53:43;;;;;;;10.63;5.95;;;20.60;99.90;;;;;;4980906;28;20129;-59
2021/09/13 07:56:08;;;;;;;10.20;5.78;;;20.70;99.70;;;;;;4983213;28;20049;-59
2021/09/13 07:58:34;;;;;;;8.93;6.18;;;20.10;99.90;;;;;;4986015;28;20061;-58
2021/09/13 08:01:00;;;;;;;14.27;7.65;;;20.50;99.90;;;;;;4985055;28;20045;-59
2021/09/13 08:03:25;;;;;;;9.35;7.07;;;21.00;99.40;;;;;;4985477;28;20034;-57
2021/09/13 08:05:51;;;;;;;11.85;7.32;;;20.80;99.90;;;;;;4981538;28;20027;-58
2021/09/13 08:08:16;;;;;;;13.07;7.25;;;21.10;99.90;;;;;;4989536;28;20393;-57
2021/09/13 08:10:43;;;;;;;11.77;6.95;;;21.40;99.00;;;;;;4981696;28;20029;-60
2021/09/13 08:13:09;;;;;;;11.23;6.72;;;21.80;98.40;;;;;;4989838;28;20029;-59
2021/09/13 08:15:34;;;;;;;12.88;6.32;;;22.20;98.00;;;;;;4989689;28;20022;-59
2021/09/13 08:18:00;;;;;;;10.38;6.32;;;21.70;98.20;;;;;;4989765;28;20101;-58
2021/09/13 08:20:26;;;;;;;10.43;6.95;;;22.20;98.10;;;;;;4988647;28;20041;-57
2021/09/13 08:22:51;;;;;;;10.80;6.25;;;22.30;97.40;;;;;;4989510;28;20754;-60
2021/09/13 08:25:17;;;;;;;14.63;7.07;;;22.80;96.90;;;;;;4989846;28;20037;-60
2021/09/13 08:27:43;;;;;;;12.15;6.72;;;23.00;96.40;;;;;;4989151;28;20478;-60
2021/09/13 08:30:09;;;;;;;9.65;6.53;;;23.10;96.10;;;;;;4986748;28;20026;-60
2021/09/13 08:32:34;;;;;;;11.30;6.22;;;22.80;96.50;;;;;;4989412;28;20034;-59
2021/09/13 08:35:00;;;;;;;11.55;6.57;;;23.00;96.30;;;;;;4989744;28;20026;-58
2021/09/13 08:37:26;;;;;;;10.93;6.38;;;22.60;96.80;;;;;;4972026;28;20104;-60
2021/09/13 08:39:51;;;;;;;9.68;6.30;;;22.60;96.90;;;;;;4986566;28;20503;-60
2021/09/13 08:42:17;;;;;;;12.93;6.53;;;22.90;95.90;;;;;;4988317;28;20537;-54
2021/09/13 08:44:46;;;;;;;16.65;6.35;;;22.70;96.60;;;;;;4988491;28;20038;-59
2021/09/13 08:50:05;;;;;;;8.77;6.82;;;23.10;96.70;;;;;;4988866;28;20073;-57
2021/09/13 08:52:30;;;;;;;10.25;6.38;;;22.70;97.00;;;;;;4989504;28;20031;-59
2021/09/13 08:54:56;;;;;;;15.73;6.32;;;23.70;96.00;;;;;;4989125;28;20042;-59
2021/09/13 08:57:23;;;;;;;11.65;5.90;;;23.20;96.00;;;;;;4988785;28;20065;-58
2021/09/13 08:59:49;;;;;;;8.93;6.38;;;23.40;96.50;;;;;;4985506;28;20034;-58
2021/09/13 09:02:16;;;;;;;9.77;6.93;;;23.60;96.10;;;;;;4989641;28;20088;-59
2021/09/13 09:04:44;;;;;;;10.77;6.28;;;23.20;95.70;;;;;;4989099;28;20022;-56
2021/09/13 09:07:18;;;;;;;10.43;6.80;;;23.30;96.60;;;;;;4988210;28;20019;-59
2021/09/13 09:09:44;;;;;;;14.18;7.35;;;23.60;96.10;;;;;;4985266;28;20023;-59
2021/09/13 09:12:10;;;;;;;11.50;6.95;;;24.20;95.50;;;;;;4986216;28;20041;-58
2021/09/13 09:14:43;;;;;;;10.88;8.63;;;24.00;95.10;;;;;;4987295;28;20478;-59
2021/09/13 09:17:23;;;;;;;11.63;8.65;;;23.60;94.90;;;;;;4985520;28;20505;-56
2021/09/13 09:20:00;;;;;;;13.00;7.70;;;23.20;95.20;;;;;;4987090;28;20030;-60
2021/09/13 09:22:28;;;;;;;10.93;7.63;;;23.30;95.70;;;;;;4987726;28;20541;-59
2021/09/13 09:24:55;;;;;;;13.93;8.30;;;23.90;95.90;;;;;;4987580;28;20042;-59
2021/09/13 09:27:22;;;;;;;12.05;8.65;;;23.80;95.60;;;;;;4987512;28;20394;-58
2021/09/13 09:29:48;;;;;;;13.43;7.95;;;24.40;94.70;;;;;;4987664;28;20041;-58
2021/09/13 09:32:21;;;;;;;12.63;7.70;;;23.80;95.50;;;;;;4988511;28;20022;-59
2021/09/13 09:34:47;;;;;;;13.80;8.50;;;24.00;95.80;;;;;;4988476;28;20042;-58
2021/09/13 09:37:13;;;;;;;14.10;7.97;;;24.10;95.10;;;;;;4973684;28;20098;-59
2021/09/13 09:39:40;;;;;;;13.60;9.13;;;24.60;94.60;;;;;;4988994;28;20034;-58
2021/09/13 09:42:09;;;;;;;13.15;8.38;;;24.50;94.90;;;;;;4982435;28;20034;-58
2021/09/13 09:44:35;;;;;;;11.70;8.20;;;24.80;94.50;;;;;;4991134;28;20576;-59
2021/09/13 09:47:08;;;;;;;9.55;8.07;;;24.70;94.60;;;;;;4992513;28;20019;-58
2021/09/13 09:49:46;;;;;;;;;;;24.70;94.80;;;;;;4992576;28;20437;-58
2021/09/13 09:52:26;;;;;;;14.95;8.10;;;24.50;94.70;;;;;;4985074;28;20084;-60
2021/09/13 09:55:11;;;;;;;11.07;8.02;;;24.50;95.60;;;;;;4992273;28;20069;-58
2021/09/13 09:57:38;;;;;;;14.68;8.52;;;24.70;94.80;;;;;;4990538;28;20022;-59
2021/09/13 10:00:26;;;;;;;18.15;13.00;;;24.90;94.40;;;;;;4989832;28;20120;-55
2021/09/13 10:02:52;;;;;;;18.70;12.40;;;24.90;93.60;;;;;;4990859;28;20040;-59
2021/09/13 10:05:20;;;;;;;24.60;17.95;;;24.30;94.50;;;;;;4988022;28;20096;-59
2021/09/13 10:07:47;;;;;;;26.05;18.30;;;23.80;94.30;;;;;;4992268;28;20033;-58
2021/09/13 10:10:12;;;;;;;25.75;17.83;;;23.70;94.70;;;;;;4991669;28;20030;-56
2021/09/13 10:12:39;;;;;;;28.52;22.08;;;23.70;94.80;;;;;;4992437;28;20027;-57
2021/09/13 10:15:06;;;;;;;33.60;20.95;;;23.30;94.70;;;;;;4988087;28;20063;-58
2021/09/13 10:17:32;;;;;;;26.33;16.67;;;23.50;95.50;;;;;;4987578;28;20025;-58
2021/09/13 10:19:59;;;;;;;20.75;14.65;;;23.50;95.70;;;;;;4989756;28;20080;-59
2021/09/13 10:22:25;;;;;;;23.27;14.98;;;23.70;95.10;;;;;;4991045;28;20532;-57
2021/09/13 10:24:51;;;;;;;17.83;13.15;;;23.50;95.30;;;;;;4988089;28;20050;-57
2021/09/13 10:27:20;;;;;;;21.83;13.23;;;23.40;95.30;;;;;;4987154;28;20043;-59
2021/09/13 10:29:46;;;;;;;20.50;13.48;;;23.40;94.90;;;;;;4969184;28;20026;-59
2021/09/13 10:32:14;;;;;;;17.98;11.85;;;23.10;95.10;;;;;;4989579;28;20045;-57
2021/09/13 10:34:39;;;;;;;15.98;10.38;;;23.30;94.80;;;;;;4989992;28;20505;-57
2021/09/13 10:37:05;;;;;;;12.38;8.85;;;23.50;93.80;;;;;;4988351;28;20058;-59
2021/09/13 10:39:52;;;;;;;14.40;8.43;;;23.50;93.10;;;;;;4968048;28;20047;-59
2021/09/13 10:42:51;;;;;;;8.23;5.63;;;23.30;94.90;;;;;;4987173;28;20421;-58
2021/09/13 10:45:35;;;;;;;12.25;8.00;;;23.40;93.30;;;;;;4987216;28;20027;-58
2021/09/13 10:48:18;;;;;;;14.75;10.35;;;23.40;93.70;;;;;;4991003;28;20026;-58
2021/09/13 10:50:49;;;;;;;15.23;8.93;;;23.50;94.10;;;;;;4992005;28;20577;-58
2021/09/13 10:53:17;;;;;;;13.77;9.27;;;23.60;94.40;;;;;;4990326;28;20053;-59
2021/09/13 10:55:52;;;;;;;13.50;7.45;;;23.60;95.00;;;;;;4990994;28;20379;-57
2021/09/13 10:58:44;;;;;;;14.73;8.02;;;23.80;94.20;;;;;;4990081;28;20035;-53
2021/09/13 11:01:23;;;;;;;12.40;6.57;;;23.80;93.80;;;;;;4984453;28;20027;-58
2021/09/13 11:03:51;;;;;;;10.15;7.13;;;24.10;93.00;;;;;;4990653;28;20041;-57
2021/09/13 11:06:17;;;;;;;9.95;7.22;;;23.90;92.70;;;;;;4991478;28;20049;-59
2021/09/13 11:08:44;;;;;;;11.82;6.47;;;23.60;92.90;;;;;;5020582;28;20034;-58
2021/09/13 11:11:17;;;;;;;11.80;7.15;;;23.90;92.70;;;;;;4990053;28;20044;-59
2021/09/13 11:13:45;;;;;;;7.65;6.47;;;23.80;93.50;;;;;;4990090;28;20057;-59
2021/09/13 11:16:16;;;;;;;13.10;8.40;;;23.80;92.60;;;;;;4991363;28;20034;-56
2021/09/13 11:18:43;;;;;;;14.35;8.15;;;23.80;92.90;;;;;;4995435;28;20060;-59
2021/09/13 11:21:18;;;;;;;12.52;8.95;;;23.40;92.50;;;;;;4988849;28;20041;-57
2021/09/13 11:23:54;;;;;;;14.32;8.07;;;23.20;94.00;;;;;;4987267;28;20057;-58
2021/09/13 11:26:28;;;;;;;10.85;7.43;;;23.50;93.20;;;;;;4990144;28;20031;-56
2021/09/13 11:28:55;;;;;;;15.52;8.32;;;23.60;93.70;;;;;;4989464;28;20023;-59
2021/09/13 11:31:40;;;;;;;13.43;8.52;;;23.60;93.30;;;;;;4988032;28;20073;-57
2021/09/13 11:34:31;;;;;;;14.60;9.00;;;23.40;93.90;;;;;;4985811;28;20037;-59
2021/09/13 11:37:01;;;;;;;12.18;8.10;;;23.50;92.70;;;;;;4989503;28;20042;-58
2021/09/13 11:39:36;;;;;;;12.48;6.60;;;23.40;93.20;;;;;;4968023;28;20432;-59
2021/09/13 11:42:08;;;;;;;8.13;5.20;;;23.50;92.70;;;;;;4989488;28;20160;-59
2021/09/13 11:44:41;;;;;;;13.70;5.32;;;23.50;93.40;;;;;;4989637;28;20030;-57
2021/09/13 11:47:07;;;;;;;10.60;5.65;;;23.30;93.60;;;;;;4989869;28;20045;-58
2021/09/13 11:49:39;;;;;;;14.05;6.47;;;23.50;92.80;;;;;;4988729;28;20398;-59
2021/09/13 11:52:28;;;;;;;10.82;6.53;;;23.50;92.10;;;;;;4989630;28;20103;-58
2021/09/13 11:55:02;;;;;;;8.75;6.10;;;23.50;92.00;;;;;;4983823;28;20505;-54
2021/09/13 11:57:47;;;;;;;13.93;7.93;;;23.50;92.90;;;;;;4989936;28;20038;-56
2021/09/13 12:00:27;;;;;;;11.07;8.75;;;23.70;92.70;;;;;;4985139;28;20045;-57
2021/09/13 12:02:56;;;;;;;9.85;6.47;;;23.50;92.70;;;;;;4988554;28;20379;-57
2021/09/13 12:05:24;;;;;;;12.00;6.25;;;23.70;93.30;;;;;;4988118;28;20504;-59
2021/09/13 12:07:55;;;;;;;14.63;5.78;;;23.90;92.70;;;;;;4988472;28;20066;-59
2021/09/13 12:10:28;;;;;;;10.85;6.57;;;24.00;92.40;;;;;;4985313;28;20034;-57
2021/09/13 12:12:57;;;;;;;13.90;7.70;;;24.00;91.00;;;;;;4986867;28;20409;-58
2021/09/13 12:15:30;;;;;;;11.48;7.38;;;23.60;91.70;;;;;;4989973;28;20040;-59
2021/09/13 12:17:55;;;;;;;10.13;7.28;;;23.40;92.50;;;;;;4984334;28;20062;-59
2021/09/13 12:20:25;;;;;;;8.68;5.97;;;23.00;91.60;;;;;;4981738;28;20038;-53
2021/09/13 12:23:18;;;;;;;9.65;7.00;;;23.30;91.50;;;;;;4984790;28;20022;-58
2021/09/13 12:25:48;;;;;;;11.55;7.10;;;23.40;91.30;;;;;;4984659;28;20042;-60
2021/09/13 12:28:20;;;;;;;10.30;8.23;;;23.30;92.20;;;;;;4988674;28;20486;-59
2021/09/13 12:30:58;;;;;;;14.88;8.13;;;23.40;91.50;;;;;;4990258;28;20089;-58
2021/09/13 12:33:47;;;;;;;10.82;9.13;;;23.20;91.50;;;;;;4989318;28;20026;-59
2021/09/13 12:36:14;;;;;;;10.88;8.23;;;23.00;91.90;;;;;;4988274;28;20034;-57
2021/09/13 12:38:44;;;;;;;8.73;7.38;;;23.00;91.50;;;;;;4971193;28;20125;-58
2021/09/13 12:41:10;;;;;;;14.57;8.48;;;23.10;92.10;;;;;;4989765;28;20438;-60